createdAt,value
2023-04-05T06:20:34.764Z,0.00
2023-04-05T06:30:34.733Z,0.00
2023-04-05T06:40:34.787Z,0.00
2023-04-05T06:50:34.650Z,0.00
2023-04-05T07:00:34.810Z,0.00
2023-04-05T07:10:34.693Z,0.26
2023-04-05T07:20:34.629Z,0.78
2023-04-05T07:30:34.793Z,0.75
2023-04-05T07:40:34.763Z,0.07
2023-04-05T07:50:34.740Z,0.44
2023-04-05T08:00:34.794Z,1.54
2023-04-05T08:10:34.651Z,0.64
2023-04-05T08:20:34.824Z,1.42
2023-04-05T08:30:34.788Z,1.50
2023-04-05T08:40:34.820Z,2.73
2023-04-05T08:50:35.037Z,2.23
2023-04-05T09:00:35.296Z,3.10
2023-04-05T09:10:35.175Z,4.27
2023-04-05T09:20:35.224Z,4.34
2023-04-05T09:30:35.190Z,0.51
2023-04-05T09:40:35.456Z,0.00
2023-04-05T09:50:35.318Z,0.00
2023-04-05T10:00:35.119Z,0.00
2023-04-05T10:10:35.121Z,2.55
2023-04-05T10:20:35.300Z,6.51
2023-04-05T10:30:35.198Z,6.95
2023-04-05T10:40:35.252Z,8.12
2023-04-05T10:50:35.212Z,7.21
2023-04-05T11:00:35.275Z,4.96
2023-04-05T11:10:35.347Z,7.07
2023-04-05T11:20:35.187Z,6.14
2023-04-05T11:30:35.149Z,9.77
2023-04-05T11:40:35.125Z,7.62
2023-04-05T11:50:35.186Z,3.96
2023-04-05T12:00:35.248Z,7.30
2023-04-05T12:10:35.110Z,5.78
2023-04-05T12:20:35.282Z,8.14
2023-04-05T12:30:35.235Z,8.41
2023-04-05T12:40:35.117Z,9.67
2023-04-05T12:50:35.157Z,5.34
2023-04-05T13:00:35.103Z,9.42
2023-04-05T13:10:35.203Z,6.74
2023-04-05T13:20:35.295Z,2.36
2023-04-05T13:30:35.259Z,0.00
2023-04-05T13:40:35.407Z,0.00
2023-04-05T13:50:35.261Z,0.00
2023-04-05T14:00:35.224Z,0.00
2023-04-05T14:10:35.390Z,0.00
2023-04-05T14:20:35.483Z,0.00
2023-04-05T14:30:35.218Z,0.00
2023-04-05T14:40:35.361Z,0.00
2023-04-05T14:50:35.309Z,0.00
2023-04-05T15:00:35.534Z,0.00
2023-04-05T15:10:35.388Z,0.00
2023-04-05T15:20:35.460Z,0.00
2023-04-05T15:30:35.414Z,0.00
2023-04-05T15:40:35.482Z,2.37
2023-04-05T15:50:35.457Z,3.38
2023-04-05T16:00:35.499Z,7.81
2023-04-05T16:10:35.350Z,5.98
2023-04-05T16:20:35.489Z,6.04
2023-04-05T16:30:35.813Z,5.04
2023-04-05T16:40:35.669Z,3.84
2023-04-05T16:50:35.424Z,5.73
2023-04-05T17:00:35.475Z,5.78
2023-04-05T17:10:35.596Z,7.48
2023-04-05T17:20:35.635Z,6.21
2023-04-05T17:30:35.379Z,5.70
2023-04-05T17:40:35.562Z,6.81
2023-04-05T17:50:35.523Z,5.15
2023-04-05T18:00:35.534Z,2.28
2023-04-05T18:10:35.556Z,0.50
2023-04-05T18:20:35.616Z,1.13
2023-04-05T18:30:35.673Z,0.21
2023-04-05T18:40:35.847Z,1.52
2023-04-05T18:50:35.810Z,0.77
2023-04-05T19:00:35.612Z,0.00
2023-04-05T19:10:35.677Z,0.13
2023-04-05T19:20:35.486Z,0.00
